Time;durP1;ratioP1;P1;durP2;ratioP2;P2;SDS_P1;SDS_P2;PMS_P1;PMS_P2;Temp;Humidity;BMP_temperature;BMP_pressure;BME280_temperature;BME280_humidity;BME280_pressure;Samples;Min_cycle;Max_cycle;Signal;HPM_P1;HPM_P2
2022/01/06 00:01:08;;;;;;;7.40;6.18;;;;;;;;;;5082913;28;20180;-76
2022/01/06 00:03:34;;;;;;;11.52;7.30;;;;;;;;;;5089536;28;20200;-75
2022/01/06 00:06:08;;;;;;;10.38;6.50;;;;;;;;;;5089741;28;20191;-76
2022/01/06 00:08:35;;;;;;;10.75;7.00;;;;;;;;;;5075149;28;20180;-76
2022/01/06 00:11:02;;;;;;;15.70;7.60;;;;;;;;;;5073335;28;20264;-76
2022/01/06 00:13:47;;;;;;;11.85;6.30;;;;;;;;;;5086051;28;20181;-75
2022/01/06 00:23:53;;;;;;;13.02;6.97;;;;;;;;;;5096276;28;20246;-75
2022/01/06 00:26:19;;;;;;;11.38;5.75;;;;;;;;;;5086306;28;20175;-75
2022/01/06 00:28:45;;;;;;;8.32;5.45;;;;;;;;;;5101522;28;20203;-75
2022/01/06 00:31:11;;;;;;;11.35;6.80;;;;;;;;;;5083568;28;20541;-76
2022/01/06 00:33:36;;;;;;;8.32;5.90;;;;;;;;;;5071900;28;20176;-76
2022/01/06 00:36:03;;;;;;;6.80;5.70;;;;;;;;;;5081938;28;20195;-75
2022/01/06 00:38:29;;;;;;;8.95;5.47;;;;;;;;;;5097487;28;20181;-76
2022/01/06 00:40:56;;;;;;;11.68;5.90;;;;;;;;;;5103398;28;20217;-75
2022/01/06 00:43:22;;;;;;;7.50;6.15;;;;;;;;;;5068240;28;20271;-76
2022/01/06 00:45:48;;;;;;;6.57;5.68;;;;;;;;;;5080690;28;20172;-76
2022/01/06 00:48:14;;;;;;;7.93;5.93;;;;;;;;;;5074145;28;20255;-76
2022/01/06 00:50:41;;;;;;;9.32;6.82;;;;;;;;;;5073777;28;20169;-75
2022/01/06 00:53:07;;;;;;;7.88;5.47;;;;;;;;;;5073670;28;20183;-76
2022/01/06 00:55:37;;;;;;;17.10;6.60;;;;;;;;;;5083971;28;20313;-75
2022/01/06 00:58:03;;;;;;;9.60;5.88;;;;;;;;;;5079241;28;20185;-76
2022/01/06 01:00:37;;;;;;;11.18;5.80;;;;;;;;;;5097990;28;20178;-75
2022/01/06 01:03:04;;;;;;;8.50;5.53;;;;;;;;;;5092586;28;20594;-75
2022/01/06 01:05:31;;;;;;;7.75;5.40;;;;;;;;;;5073786;28;20179;-75
2022/01/06 01:07:57;;;;;;;10.52;5.45;;;;;;;;;;5087861;28;20180;-75
2022/01/06 01:10:22;;;;;;;10.05;5.43;;;;;;;;;;5066867;28;20191;-75
2022/01/06 01:12:49;;;;;;;10.90;5.63;;;;;;;;;;5066870;28;20187;-75
2022/01/06 01:15:20;;;;;;;15.38;5.90;;;;;;;;;;5082819;28;20183;-76
2022/01/06 01:17:48;;;;;;;13.10;6.50;;;;;;;;;;5093805;28;20224;-75
2022/01/06 01:20:15;;;;;;;8.55;5.07;;;;;;;;;;5088550;28;20205;-76
2022/01/06 01:22:41;;;;;;;9.43;6.78;;;;;;;;;;5077821;28;20191;-76
2022/01/06 01:25:07;;;;;;;8.90;5.93;;;;;;;;;;5099801;28;20199;-75
2022/01/06 01:27:38;;;;;;;10.18;6.40;;;;;;;;;;5089027;28;20537;-76
2022/01/06 01:30:10;;;;;;;15.27;5.95;;;;;;;;;;5089318;28;20188;-76
2022/01/06 01:32:37;;;;;;;10.05;5.63;;;;;;;;;;5073333;28;20184;-75
2022/01/06 01:35:08;;;;;;;9.18;6.57;;;;;;;;;;5068886;28;20669;-75
2022/01/06 01:37:35;;;;;;;12.88;6.15;;;;;;;;;;5065115;28;20192;-75
2022/01/06 01:40:01;;;;;;;10.15;5.93;;;;;;;;;;5088253;28;20256;-75
2022/01/06 01:42:27;;;;;;;14.38;6.50;;;;;;;;;;5073121;28;20270;-75
2022/01/06 01:44:54;;;;;;;10.88;5.88;;;;;;;;;;5073333;28;20216;-75
2022/01/06 01:47:30;;;;;;;9.82;6.22;;;;;;;;;;5087732;28;20388;-75
2022/01/06 01:50:10;;;;;;;13.10;6.18;;;;;;;;;;5071561;28;20179;-75
2022/01/06 01:52:37;;;;;;;9.68;5.63;;;;;;;;;;5103961;28;20171;-76
2022/01/06 01:55:03;;;;;;;8.75;5.85;;;;;;;;;;5087130;28;20173;-75
2022/01/06 01:57:29;;;;;;;8.57;5.07;;;;;;;;;;5097611;28;20176;-75
2022/01/06 01:59:55;;;;;;;6.00;5.13;;;;;;;;;;5080138;28;20252;-76
2022/01/06 02:02:21;;;;;;;7.55;6.20;;;;;;;;;;5080886;28;20717;-75
2022/01/06 02:04:50;;;;;;;14.20;5.57;;;;;;;;;;5080520;28;20229;-75
2022/01/06 02:07:16;;;;;;;11.18;6.13;;;;;;;;;;5088601;28;20211;-76
2022/01/06 02:09:42;;;;;;;6.05;4.93;;;;;;;;;;5070020;28;20239;-76
2022/01/06 02:12:09;;;;;;;13.85;6.25;;;;;;;;;;5088469;28;20180;-76
2022/01/06 02:14:35;;;;;;;11.30;6.53;;;;;;;;;;5093657;28;20179;-76
2022/01/06 02:17:01;;;;;;;12.68;5.60;;;;;;;;;;5071434;28;20196;-75
2022/01/06 02:19:27;;;;;;;11.18;6.40;;;;;;;;;;5066479;28;20224;-75
2022/01/06 02:21:53;;;;;;;6.78;5.53;;;;;;;;;;5087584;28;20264;-75
2022/01/06 02:24:19;;;;;;;7.68;5.70;;;;;;;;;;5089979;28;20212;-75
2022/01/06 02:26:45;;;;;;;8.68;5.55;;;;;;;;;;5077459;28;20712;-75
2022/01/06 02:29:11;;;;;;;8.68;5.28;;;;;;;;;;5083504;28;20211;-75
2022/01/06 02:31:46;;;;;;;10.18;5.63;;;;;;;;;;5086435;28;20271;-76
2022/01/06 02:34:12;;;;;;;10.43;5.78;;;;;;;;;;5103294;28;20167;-76
2022/01/06 02:36:38;;;;;;;15.35;6.50;;;;;;;;;;5098910;28;20613;-75
2022/01/06 02:39:04;;;;;;;9.20;5.40;;;;;;;;;;5091030;28;20217;-75
2022/01/06 02:41:30;;;;;;;8.75;6.00;;;;;;;;;;5099491;28;20180;-75
2022/01/06 02:43:56;;;;;;;11.25;5.60;;;;;;;;;;5090431;28;20203;-75
2022/01/06 02:46:22;;;;;;;8.98;4.80;;;;;;;;;;5103829;28;20195;-76
2022/01/06 02:48:48;;;;;;;12.10;6.20;;;;;;;;;;5091304;28;20584;-76
2022/01/06 02:51:14;;;;;;;7.57;5.80;;;;;;;;;;5075941;28;20206;-76
2022/01/06 02:53:40;;;;;;;7.38;5.80;;;;;;;;;;5077402;28;20190;-76
2022/01/06 02:56:06;;;;;;;8.70;5.63;;;;;;;;;;5100820;28;20199;-76
2022/01/06 02:58:32;;;;;;;12.23;5.68;;;;;;;;;;5087638;28;20261;-76
2022/01/06 03:00:58;;;;;;;7.68;5.13;;;;;;;;;;5087595;28;20195;-76
2022/01/06 03:03:24;;;;;;;9.23;5.22;;;;;;;;;;5091801;28;20338;-75
2022/01/06 03:05:50;;;;;;;5.88;4.88;;;;;;;;;;5081954;28;20183;-75
2022/01/06 03:08:19;;;;;;;14.02;5.50;;;;;;;;;;5111030;28;20175;-75
2022/01/06 03:10:44;;;;;;;8.48;5.05;;;;;;;;;;5071585;28;20179;-76
2022/01/06 03:13:11;;;;;;;8.85;5.72;;;;;;;;;;5084637;28;20171;-76
2022/01/06 03:15:37;;;;;;;7.57;5.82;;;;;;;;;;5089379;28;20202;-76
2022/01/06 03:18:03;;;;;;;6.85;4.82;;;;;;;;;;5078973;28;20237;-76
2022/01/06 03:20:29;;;;;;;10.07;5.55;;;;;;;;;;5098581;28;20244;-76
2022/01/06 03:22:56;;;;;;;12.50;5.25;;;;;;;;;;5089309;28;20199;-76
2022/01/06 03:25:22;;;;;;;7.75;4.88;;;;;;;;;;5069081;28;20175;-76
2022/01/06 03:27:49;;;;;;;9.35;5.55;;;;;;;;;;5088834;28;20169;-76
2022/01/06 03:30:17;;;;;;;10.55;6.45;;;;;;;;;;5075957;28;20183;-76
2022/01/06 03:32:43;;;;;;;8.85;5.85;;;;;;;;;;5075547;28;20214;-76
2022/01/06 03:35:10;;;;;;;13.32;6.65;;;;;;;;;;5071870;28;20271;-76
2022/01/06 03:37:36;;;;;;;9.05;5.88;;;;;;;;;;5101829;28;20205;-76
2022/01/06 03:40:05;;;;;;;6.65;5.05;;;;;;;;;;5071979;28;20201;-76
2022/01/06 03:42:32;;;;;;;6.82;5.03;;;;;;;;;;5100444;28;20176;-75
2022/01/06 03:44:58;;;;;;;9.38;5.43;;;;;;;;;;5079235;28;20242;-76
2022/01/06 03:47:24;;;;;;;9.30;4.40;;;;;;;;;;5094621;28;20207;-76
2022/01/06 03:49:50;;;;;;;10.20;5.35;;;;;;;;;;5087813;28;20188;-76
2022/01/06 03:52:16;;;;;;;9.75;5.40;;;;;;;;;;5098161;28;20210;-76
2022/01/06 03:54:42;;;;;;;7.20;4.70;;;;;;;;;;5072047;28;20180;-76
2022/01/06 03:57:08;;;;;;;11.98;5.78;;;;;;;;;;5072611;28;20747;-76
2022/01/06 03:59:35;;;;;;;7.63;5.20;;;;;;;;;;5090619;28;20180;-76
2022/01/06 04:02:01;;;;;;;9.45;4.90;;;;;;;;;;5089244;28;20210;-76
2022/01/06 04:04:27;;;;;;;10.45;5.18;;;;;;;;;;5068045;28;20208;-76
2022/01/06 04:06:53;;;;;;;10.35;5.78;;;;;;;;;;5093177;28;20259;-76
2022/01/06 04:09:19;;;;;;;6.85;5.03;;;;;;;;;;5086408;28;20651;-76
2022/01/06 04:11:45;;;;;;;7.70;5.45;;;;;;;;;;5080496;28;20207;-76
2022/01/06 04:14:11;;;;;;;9.32;4.88;;;;;;;;;;5089655;28;20203;-76
2022/01/06 04:16:39;;;;;;;8.27;5.25;;;;;;;;;;5066999;28;20192;-76
2022/01/06 04:19:05;;;;;;;10.07;4.70;;;;;;;;;;5088514;28;20227;-76
2022/01/06 04:21:31;;;;;;;9.48;5.03;;;;;;;;;;5090425;28;20180;-76
2022/01/06 04:23:57;;;;;;;10.45;4.40;;;;;;;;;;5074419;28;20204;-76
2022/01/06 04:26:23;;;;;;;8.23;4.85;;;;;;;;;;5073960;28;20183;-76
2022/01/06 04:28:49;;;;;;;10.85;6.53;;;;;;;;;;5071006;28;20180;-76
2022/01/06 04:31:15;;;;;;;7.75;5.13;;;;;;;;;;5087127;28;20211;-75
2022/01/06 04:33:41;;;;;;;12.13;4.65;;;;;;;;;;5071221;28;20180;-76
2022/01/06 04:36:08;;;;;;;8.63;4.47;;;;;;;;;;5102885;28;20190;-75
2022/01/06 04:38:36;;;;;;;10.63;5.63;;;;;;;;;;5104954;28;20176;-76
2022/01/06 04:41:02;;;;;;;6.03;4.72;;;;;;;;;;5088835;28;20239;-75
2022/01/06 04:43:28;;;;;;;8.60;4.53;;;;;;;;;;5067452;28;20232;-76
2022/01/06 04:45:54;;;;;;;4.93;4.40;;;;;;;;;;5087755;28;20164;-76
2022/01/06 04:48:20;;;;;;;9.18;4.72;;;;;;;;;;5088386;28;20192;-76
2022/01/06 04:50:46;;;;;;;10.45;4.70;;;;;;;;;;5089541;28;20176;-76
2022/01/06 04:53:12;;;;;;;7.13;4.97;;;;;;;;;;5089034;28;20206;-76
2022/01/06 04:55:38;;;;;;;7.10;4.88;;;;;;;;;;5068826;28;20187;-76
2022/01/06 04:58:04;;;;;;;11.55;4.60;;;;;;;;;;5100708;28;20195;-76
2022/01/06 05:00:30;;;;;;;7.90;5.00;;;;;;;;;;5068226;28;20248;-76
2022/01/06 05:02:56;;;;;;;6.57;4.75;;;;;;;;;;5088486;28;20189;-75
2022/01/06 05:05:22;;;;;;;5.13;4.45;;;;;;;;;;5089358;28;20175;-76
2022/01/06 05:07:48;;;;;;;8.43;4.60;;;;;;;;;;5075390;28;20219;-76
2022/01/06 05:10:14;;;;;;;16.17;5.38;;;;;;;;;;5068582;28;20196;-76
2022/01/06 05:12:44;;;;;;;12.90;5.55;;;;;;;;;;5071275;28;20168;-76
2022/01/06 05:15:11;;;;;;;11.68;5.90;;;;;;;;;;5088221;28;20593;-76
2022/01/06 05:17:37;;;;;;;8.45;5.20;;;;;;;;;;5087880;28;20236;-76
2022/01/06 05:20:06;;;;;;;7.00;4.70;;;;;;;;;;5073141;28;20183;-76
2022/01/06 05:22:33;;;;;;;7.03;5.78;;;;;;;;;;5084216;28;20179;-76
2022/01/06 05:24:59;;;;;;;11.85;5.15;;;;;;;;;;5100008;28;20248;-76
2022/01/06 05:27:25;;;;;;;5.43;4.60;;;;;;;;;;5073396;28;20191;-75
2022/01/06 05:29:52;;;;;;;7.70;5.40;;;;;;;;;;5072783;28;20180;-76
2022/01/06 05:32:18;;;;;;;10.85;5.75;;;;;;;;;;5088172;28;20396;-76
2022/01/06 05:34:44;;;;;;;6.88;5.10;;;;;;;;;;5069548;28;20745;-75
2022/01/06 05:37:10;;;;;;;6.93;4.90;;;;;;;;;;5092924;28;20262;-76
2022/01/06 05:39:36;;;;;;;8.23;5.05;;;;;;;;;;5084727;28;20209;-76
2022/01/06 05:42:02;;;;;;;6.97;5.10;;;;;;;;;;5092600;28;20223;-76
2022/01/06 05:44:32;;;;;;;10.98;5.45;;;;;;;;;;5071844;28;20195;-76
2022/01/06 05:46:59;;;;;;;9.27;5.13;;;;;;;;;;5098961;28;20168;-76
2022/01/06 05:49:25;;;;;;;5.45;4.13;;;;;;;;;;5085189;28;20180;-76
2022/01/06 05:51:51;;;;;;;9.15;5.47;;;;;;;;;;5110990;28;20220;-76
2022/01/06 05:54:17;;;;;;;12.02;5.30;;;;;;;;;;5076211;28;20188;-76
2022/01/06 05:56:43;;;;;;;6.57;5.00;;;;;;;;;;5073254;28;20192;-76
2022/01/06 05:59:09;;;;;;;5.57;4.35;;;;;;;;;;5089303;28;20265;-76
2022/01/06 06:01:35;;;;;;;5.45;4.70;;;;;;;;;;5071718;28;20267;-76
2022/01/06 06:04:01;;;;;;;10.57;5.50;;;;;;;;;;5085832;28;20195;-75
2022/01/06 06:06:27;;;;;;;6.28;4.53;;;;;;;;;;5091948;28;20192;-76
2022/01/06 06:08:53;;;;;;;11.52;4.57;;;;;;;;;;5079814;28;20202;-75
2022/01/06 06:11:19;;;;;;;6.47;4.65;;;;;;;;;;5110915;28;20258;-75
2022/01/06 06:13:45;;;;;;;8.93;4.45;;;;;;;;;;5089118;28;20230;-75
2022/01/06 06:16:11;;;;;;;6.07;4.65;;;;;;;;;;5086422;28;20187;-76
2022/01/06 06:18:37;;;;;;;10.27;5.60;;;;;;;;;;5073099;28;20288;-76
2022/01/06 06:21:03;;;;;;;11.40;4.63;;;;;;;;;;5090533;28;20184;-76
2022/01/06 06:23:29;;;;;;;8.98;4.93;;;;;;;;;;5076828;28;20207;-76
2022/01/06 06:25:55;;;;;;;8.85;5.45;;;;;;;;;;5092999;28;20187;-75
2022/01/06 06:28:21;;;;;;;5.28;4.28;;;;;;;;;;5112061;28;20167;-76
2022/01/06 06:30:47;;;;;;;7.75;5.03;;;;;;;;;;5095773;28;20176;-76
2022/01/06 06:33:13;;;;;;;10.23;4.40;;;;;;;;;;5098877;28;20250;-76
2022/01/06 06:35:39;;;;;;;12.73;5.45;;;;;;;;;;5088711;28;20236;-76
2022/01/06 06:38:05;;;;;;;8.23;4.75;;;;;;;;;;5087697;28;20372;-76
2022/01/06 06:40:32;;;;;;;8.95;4.68;;;;;;;;;;5069797;28;20188;-76
2022/01/06 06:42:58;;;;;;;6.50;4.47;;;;;;;;;;5085142;28;20192;-76
2022/01/06 06:45:24;;;;;;;9.18;5.78;;;;;;;;;;5090802;28;20205;-76
2022/01/06 06:47:51;;;;;;;9.07;5.32;;;;;;;;;;5095607;28;20187;-76
2022/01/06 06:50:17;;;;;;;5.05;4.38;;;;;;;;;;5088720;28;20549;-76
2022/01/06 06:52:44;;;;;;;7.65;5.45;;;;;;;;;;5092617;28;20175;-76
2022/01/06 06:55:13;;;;;;;12.07;5.40;;;;;;;;;;5103023;28;20179;-76
2022/01/06 06:57:39;;;;;;;11.73;5.68;;;;;;;;;;5070140;28;20177;-76
2022/01/06 07:00:06;;;;;;;8.85;4.50;;;;;;;;;;5084545;28;20266;-76
2022/01/06 07:02:32;;;;;;;5.60;4.35;;;;;;;;;;5102411;28;20200;-77
2022/01/06 07:04:59;;;;;;;9.13;4.55;;;;;;;;;;5099142;28;20207;-77
2022/01/06 07:07:25;;;;;;;12.98;6.82;;;;;;;;;;5095684;28;20184;-77
2022/01/06 07:09:51;;;;;;;14.40;7.22;;;;;;;;;;5092660;28;20176;-76
2022/01/06 07:12:17;;;;;;;12.40;8.38;;;;;;;;;;5087777;28;20176;-77
2022/01/06 07:14:43;;;;;;;19.35;8.18;;;;;;;;;;5100456;28;20241;-76
2022/01/06 07:17:10;;;;;;;21.45;7.35;;;;;;;;;;5101229;28;20262;-76
2022/01/06 07:19:36;;;;;;;13.30;7.15;;;;;;;;;;5069014;28;20279;-76
2022/01/06 07:22:03;;;;;;;10.23;6.72;;;;;;;;;;5113206;28;20167;-77
2022/01/06 07:24:28;;;;;;;10.88;5.40;;;;;;;;;;5103158;28;20215;-77
2022/01/06 07:26:54;;;;;;;10.73;6.75;;;;;;;;;;5076601;28;20189;-77
2022/01/06 07:29:20;;;;;;;13.27;6.43;;;;;;;;;;5100456;28;20187;-77
2022/01/06 07:31:46;;;;;;;10.82;6.25;;;;;;;;;;5087671;28;20241;-77
2022/01/06 07:34:12;;;;;;;8.13;6.18;;;;;;;;;;5079356;28;20179;-78
2022/01/06 07:36:38;;;;;;;12.70;5.75;;;;;;;;;;5104024;28;20216;-77
2022/01/06 07:39:05;;;;;;;10.57;6.43;;;;;;;;;;5078321;28;20735;-78
2022/01/06 07:41:31;;;;;;;10.02;6.22;;;;;;;;;;5085835;28;20231;-77
2022/01/06 07:43:57;;;;;;;12.02;6.28;;;;;;;;;;5082048;28;20211;-79
2022/01/06 07:46:23;;;;;;;8.02;5.65;;;;;;;;;;5072071;28;20641;-79
2022/01/06 07:48:56;;;;;;;9.85;7.50;;;;;;;;;;5110183;28;20190;-79
2022/01/06 07:51:25;;;;;;;8.57;6.20;;;;;;;;;;5103666;28;20171;-79
2022/01/06 07:53:52;;;;;;;7.95;5.97;;;;;;;;;;5083727;28;20188;-79
2022/01/06 07:56:18;;;;;;;12.20;7.25;;;;;;;;;;5094768;28;20180;-78
2022/01/06 07:58:44;;;;;;;7.57;5.70;;;;;;;;;;5080275;28;20225;-78
2022/01/06 08:01:11;;;;;;;11.23;7.85;;;;;;;;;;5084448;28;20191;-77
2022/01/06 08:03:37;;;;;;;12.98;7.72;;;;;;;;;;5079140;28;20270;-79
2022/01/06 08:06:03;;;;;;;9.00;7.03;;;;;;;;;;5099454;28;20193;-78
2022/01/06 08:08:29;;;;;;;8.05;6.20;;;;;;;;;;5085217;28;20183;-78
2022/01/06 08:10:55;;;;;;;11.95;6.65;;;;;;;;;;5099027;28;20210;-78
2022/01/06 08:13:21;;;;;;;7.68;5.32;;;;;;;;;;5079571;28;20188;-78
2022/01/06 08:15:47;;;;;;;9.40;5.30;;;;;;;;;;5084170;28;20191;-78
2022/01/06 08:18:13;;;;;;;8.52;5.78;;;;;;;;;;5091695;28;20235;-79
2022/01/06 08:20:39;;;;;;;8.80;6.35;;;;;;;;;;5086575;28;20180;-80
2022/01/06 08:23:06;;;;;;;12.43;6.40;;;;;;;;;;5072160;28;20187;-79
2022/01/06 08:25:33;;;;;;;14.02;6.40;;;;;;;;;;5094228;28;20200;-79
2022/01/06 08:27:59;;;;;;;11.73;6.65;;;;;;;;;;5077587;28;20225;-79
2022/01/06 08:30:25;;;;;;;9.10;5.75;;;;;;;;;;5087771;28;20202;-79
2022/01/06 08:32:52;;;;;;;8.50;5.80;;;;;;;;;;5083079;28;20211;-79
2022/01/06 08:35:18;;;;;;;9.60;5.70;;;;;;;;;;5085190;28;20653;-79
2022/01/06 08:37:44;;;;;;;9.57;6.25;;;;;;;;;;5069310;28;20198;-79
2022/01/06 08:40:11;;;;;;;9.50;6.72;;;;;;;;;;5077714;28;20176;-79
2022/01/06 08:42:37;;;;;;;9.20;6.60;;;;;;;;;;5103076;28;20180;-79
2022/01/06 08:45:03;;;;;;;8.90;5.60;;;;;;;;;;5084993;28;20226;-80
2022/01/06 08:47:30;;;;;;;15.82;6.25;;;;;;;;;;5095528;28;20537;-80
2022/01/06 08:49:56;;;;;;;8.30;6.90;;;;;;;;;;5092059;28;20663;-80
2022/01/06 08:52:22;;;;;;;10.20;6.88;;;;;;;;;;5067657;28;20172;-80
2022/01/06 08:54:48;;;;;;;15.50;7.63;;;;;;;;;;5070701;28;20187;-80
2022/01/06 08:57:14;;;;;;;7.22;5.55;;;;;;;;;;5102462;28;20211;-81
2022/01/06 08:59:40;;;;;;;10.85;6.57;;;;;;;;;;5091480;28;20258;-80
2022/01/06 09:02:06;;;;;;;8.50;6.00;;;;;;;;;;5085883;28;20188;-80
2022/01/06 09:04:32;;;;;;;9.38;5.45;;;;;;;;;;5094168;28;20208;-81
2022/01/06 09:06:58;;;;;;;12.82;6.25;;;;;;;;;;5081992;28;20204;-81
2022/01/06 09:09:24;;;;;;;14.75;6.88;;;;;;;;;;5083401;28;20198;-81
2022/01/06 09:11:51;;;;;;;7.32;5.35;;;;;;;;;;5078912;28;20713;-81
2022/01/06 09:14:17;;;;;;;7.15;6.22;;;;;;;;;;5073652;28;20180;-80
2022/01/06 09:16:43;;;;;;;13.55;7.38;;;;;;;;;;5067700;28;20196;-80
2022/01/06 09:19:10;;;;;;;7.78;5.15;;;;;;;;;;5117251;28;20257;-80
2022/01/06 09:21:36;;;;;;;6.78;5.15;;;;;;;;;;5117152;28;20182;-80
2022/01/06 09:24:06;;;;;;;14.63;5.40;;;;;;;;;;5108363;28;20203;-78
2022/01/06 09:26:32;;;;;;;9.20;5.57;;;;;;;;;;5092777;28;20175;-78
2022/01/06 09:28:58;;;;;;;9.27;5.30;;;;;;;;;;5120142;28;20175;-78
2022/01/06 09:31:24;;;;;;;10.50;6.40;;;;;;;;;;5104194;28;20213;-78
2022/01/06 09:33:50;;;;;;;13.10;5.88;;;;;;;;;;5108214;28;20451;-78
2022/01/06 09:36:16;;;;;;;11.18;5.50;;;;;;;;;;5108395;28;20225;-79
2022/01/06 09:38:45;;;;;;;9.90;5.05;;;;;;;;;;5093646;28;20637;-78
2022/01/06 09:41:11;;;;;;;10.80;5.35;;;;;;;;;;5109029;28;20193;-78
2022/01/06 09:43:37;;;;;;;9.73;5.88;;;;;;;;;;5087224;28;20199;-78
2022/01/06 09:46:06;;;;;;;12.38;5.97;;;;;;;;;;5106325;28;20178;-78
2022/01/06 09:48:34;;;;;;;9.32;5.63;;;;;;;;;;5100761;28;20179;-79
2022/01/06 09:51:00;;;;;;;7.57;6.47;;;;;;;;;;5112575;28;20179;-78
2022/01/06 09:53:26;;;;;;;7.97;6.20;;;;;;;;;;5093978;28;20270;-79
2022/01/06 09:55:53;;;;;;;8.50;5.45;;;;;;;;;;5090583;28;20191;-78
2022/01/06 09:58:24;;;;;;;15.90;6.18;;;;;;;;;;5104216;28;20180;-78
2022/01/06 10:00:51;;;;;;;14.13;5.63;;;;;;;;;;5107414;28;20199;-78
2022/01/06 10:03:17;;;;;;;9.25;5.88;;;;;;;;;;5108162;28;20217;-76
2022/01/06 10:05:44;;;;;;;8.68;4.55;;;;;;;;;;5092548;28;20199;-78
2022/01/06 10:08:11;;;;;;;9.75;4.32;;;;;;;;;;5092870;28;20226;-78
2022/01/06 10:10:37;;;;;;;8.00;5.20;;;;;;;;;;5104393;28;20190;-78
2022/01/06 10:13:08;;;;;;;6.78;5.20;;;;;;;;;;5106622;28;20609;-78
2022/01/06 10:15:35;;;;;;;9.98;4.43;;;;;;;;;;5100209;28;20856;-78
2022/01/06 10:18:14;;;;;;;6.25;4.22;;;;;;;;;;5111218;28;20220;-77
2022/01/06 10:20:40;;;;;;;5.00;3.97;;;;;;;;;;5108039;28;20183;-77
2022/01/06 10:23:11;;;;;;;6.68;3.60;;;;;;;;;;5108285;28;20182;-77
2022/01/06 10:25:38;;;;;;;6.75;3.88;;;;;;;;;;5105732;28;20168;-77
2022/01/06 10:28:17;;;;;;;7.10;4.90;;;;;;;;;;5120641;28;20182;-77
2022/01/06 10:30:48;;;;;;;5.55;4.20;;;;;;;;;;5097459;28;20210;-77
2022/01/06 10:33:21;;;;;;;4.43;4.00;;;;;;;;;;5106859;28;20176;-77
2022/01/06 10:35:48;;;;;;;6.90;4.15;;;;;;;;;;5092821;28;20184;-77
2022/01/06 10:38:25;;;;;;;9.10;4.25;;;;;;;;;;5092617;28;20185;-77
2022/01/06 10:40:51;;;;;;;9.50;5.13;;;;;;;;;;5089013;28;20273;-77
2022/01/06 10:43:16;;;;;;;12.77;4.95;;;;;;;;;;5118891;28;20163;-77
2022/01/06 10:45:42;;;;;;;6.32;5.13;;;;;;;;;;5109723;28;20691;-77
2022/01/06 10:48:08;;;;;;;7.63;5.30;;;;;;;;;;5100122;28;20191;-77
2022/01/06 10:50:36;;;;;;;8.57;4.72;;;;;;;;;;5118487;28;20179;-77
2022/01/06 10:53:07;;;;;;;11.32;5.03;;;;;;;;;;5095774;28;20178;-76
2022/01/06 10:55:34;;;;;;;6.97;4.50;;;;;;;;;;5106019;28;20195;-77
2022/01/06 10:58:05;;;;;;;9.57;4.38;;;;;;;;;;5110718;28;20180;-77
2022/01/06 11:00:32;;;;;;;6.85;4.28;;;;;;;;;;5101797;28;20243;-77
2022/01/06 11:03:06;;;;;;;7.90;4.90;;;;;;;;;;5095723;28;20184;-77
2022/01/06 11:05:33;;;;;;;12.20;5.55;;;;;;;;;;5112009;28;20188;-77
2022/01/06 11:08:00;;;;;;;11.05;4.53;;;;;;;;;;5092072;28;20176;-77
2022/01/06 11:10:26;;;;;;;10.60;4.43;;;;;;;;;;5123548;28;20187;-77
2022/01/06 11:12:52;;;;;;;13.40;4.18;;;;;;;;;;5110043;28;20238;-77
2022/01/06 11:15:19;;;;;;;9.18;4.43;;;;;;;;;;5096460;28;20283;-77
2022/01/06 11:17:48;;;;;;;7.32;3.75;;;;;;;;;;5110590;28;20212;-77
2022/01/06 11:20:16;;;;;;;9.15;4.95;;;;;;;;;;5111228;28;20675;-77
2022/01/06 11:22:49;;;;;;;9.55;4.55;;;;;;;;;;5090222;28;20204;-77
2022/01/06 11:25:15;;;;;;;8.43;4.40;;;;;;;;;;5107570;28;20304;-77
2022/01/06 11:27:41;;;;;;;7.60;4.50;;;;;;;;;;5111184;28;20179;-77
2022/01/06 11:30:10;;;;;;;10.77;4.97;;;;;;;;;;5111033;28;20533;-77
2022/01/06 11:32:37;;;;;;;4.55;3.78;;;;;;;;;;5110172;28;20188;-77
2022/01/06 11:35:04;;;;;;;6.93;4.10;;;;;;;;;;5095059;28;20187;-77
2022/01/06 11:37:44;;;;;;;10.70;3.85;;;;;;;;;;5105491;28;20199;-77
2022/01/06 11:40:10;;;;;;;12.40;4.47;;;;;;;;;;5121565;28;20181;-77
2022/01/06 11:42:36;;;;;;;6.80;4.53;;;;;;;;;;5111397;28;20588;-77
2022/01/06 11:45:05;;;;;;;10.55;4.25;;;;;;;;;;5095424;28;20207;-77
2022/01/06 11:47:36;;;;;;;6.75;3.63;;;;;;;;;;5093343;28;20179;-77
2022/01/06 11:50:17;;;;;;;8.98;4.28;;;;;;;;;;5122311;28;20206;-77
2022/01/06 11:52:50;;;;;;;8.73;5.13;;;;;;;;;;5107784;28;20167;-77
2022/01/06 11:55:19;;;;;;;7.13;4.32;;;;;;;;;;5111408;28;20183;-78
2022/01/06 11:57:45;;;;;;;5.85;4.03;;;;;;;;;;5120758;28;20167;-78
2022/01/06 12:00:17;;;;;;;15.90;4.43;;;;;;;;;;5112346;28;20188;-78
2022/01/06 12:02:43;;;;;;;6.38;3.80;;;;;;;;;;5118994;28;20194;-78
2022/01/06 12:05:09;;;;;;;11.98;3.95;;;;;;;;;;5118874;28;20203;-78
2022/01/06 12:07:35;;;;;;;7.13;4.10;;;;;;;;;;5101168;28;20195;-79
2022/01/06 12:10:07;;;;;;;8.07;2.95;;;;;;;;;;5110603;28;20184;-78
2022/01/06 12:12:37;;;;;;;7.43;3.30;;;;;;;;;;5118210;28;20183;-78
2022/01/06 12:15:06;;;;;;;3.83;2.80;;;;;;;;;;5109565;28;20483;-79
2022/01/06 12:17:32;;;;;;;7.95;2.85;;;;;;;;;;5112463;28;20183;-80
2022/01/06 12:19:58;;;;;;;5.30;2.83;;;;;;;;;;5121316;28;20243;-78
2022/01/06 12:22:26;;;;;;;6.32;3.33;;;;;;;;;;5105398;28;20696;-79
2022/01/06 12:24:59;;;;;;;8.15;2.92;;;;;;;;;;5100614;28;20213;-78
2022/01/06 12:27:26;;;;;;;7.35;3.20;;;;;;;;;;5112694;28;20183;-78
2022/01/06 12:29:53;;;;;;;6.68;2.95;;;;;;;;;;5104392;28;20217;-79
2022/01/06 12:32:20;;;;;;;5.15;2.65;;;;;;;;;;5095159;28;20269;-81
2022/01/06 12:34:53;;;;;;;2.72;2.00;;;;;;;;;;5114304;28;20180;-78
2022/01/06 12:37:29;;;;;;;5.57;3.25;;;;;;;;;;5105806;28;20175;-78
2022/01/06 12:39:55;;;;;;;6.38;3.20;;;;;;;;;;5115632;28;20170;-78
2022/01/06 12:42:22;;;;;;;9.60;3.92;;;;;;;;;;5109738;28;20213;-79
2022/01/06 12:44:48;;;;;;;7.28;3.25;;;;;;;;;;5113484;28;20259;-77
2022/01/06 12:47:15;;;;;;;8.40;4.55;;;;;;;;;;5112965;28;20191;-78
2022/01/06 12:49:41;;;;;;;13.77;4.05;;;;;;;;;;5118793;28;20378;-78
2022/01/06 12:52:07;;;;;;;5.82;3.33;;;;;;;;;;5138617;27;20181;-77
2022/01/06 12:54:35;;;;;;;7.50;3.35;;;;;;;;;;5117871;28;20252;-77
2022/01/06 12:57:02;;;;;;;8.20;3.83;;;;;;;;;;5103153;28;20183;-77
2022/01/06 12:59:33;;;;;;;11.13;5.10;;;;;;;;;;5115014;28;20195;-77
2022/01/06 13:02:02;;;;;;;13.23;5.43;;;;;;;;;;5110823;28;20184;-77
2022/01/06 13:04:30;;;;;;;9.88;4.70;;;;;;;;;;5114762;28;20207;-77
2022/01/06 13:06:56;;;;;;;10.02;4.80;;;;;;;;;;5104899;28;20171;-77
2022/01/06 13:09:24;;;;;;;6.90;4.57;;;;;;;;;;5118749;28;20651;-77
2022/01/06 13:11:52;;;;;;;7.38;4.75;;;;;;;;;;5117922;28;20182;-77
2022/01/06 13:14:33;;;;;;;7.82;3.70;;;;;;;;;;5109124;28;20179;-77
2022/01/06 13:17:13;;;;;;;10.20;4.60;;;;;;;;;;5108778;28;20183;-77
2022/01/06 13:19:51;;;;;;;10.18;4.22;;;;;;;;;;5086062;28;20236;-78
2022/01/06 13:22:25;;;;;;;6.90;4.05;;;;;;;;;;5088181;28;20295;-77
2022/01/06 13:24:51;;;;;;;13.45;5.15;;;;;;;;;;5106038;27;20230;-77
2022/01/06 13:27:17;;;;;;;7.07;4.13;;;;;;;;;;5106355;28;20317;-78
2022/01/06 13:29:50;;;;;;;10.20;4.80;;;;;;;;;;5099370;28;20188;-78
2022/01/06 13:32:22;;;;;;;7.00;4.05;;;;;;;;;;5108449;28;20187;-78
2022/01/06 13:34:48;;;;;;;7.43;3.90;;;;;;;;;;5133884;27;20191;-77
2022/01/06 13:37:16;;;;;;;11.40;4.60;;;;;;;;;;5106190;28;20189;-77
2022/01/06 13:39:44;;;;;;;7.25;3.60;;;;;;;;;;5086575;28;20176;-78
2022/01/06 13:42:12;;;;;;;10.52;3.92;;;;;;;;;;5114265;28;20225;-77
2022/01/06 13:44:48;;;;;;;8.57;5.00;;;;;;;;;;5103085;28;20203;-78
2022/01/06 13:47:18;;;;;;;9.35;3.85;;;;;;;;;;5119057;28;20239;-78
2022/01/06 13:52:29;;;;;;;8.88;4.00;;;;;;;;;;5109541;28;20229;-78
2022/01/06 13:54:56;;;;;;;12.18;4.97;;;;;;;;;;5091595;28;20262;-78
2022/01/06 13:57:22;;;;;;;5.18;3.03;;;;;;;;;;5106383;28;20190;-78
2022/01/06 13:59:48;;;;;;;5.47;3.97;;;;;;;;;;5124999;28;20191;-78
2022/01/06 14:02:16;;;;;;;4.57;3.30;;;;;;;;;;5101973;28;20212;-78
2022/01/06 14:04:44;;;;;;;5.20;3.78;;;;;;;;;;5090114;28;20291;-78
2022/01/06 14:07:10;;;;;;;5.40;3.42;;;;;;;;;;5105169;28;20721;-79
2022/01/06 14:09:36;;;;;;;8.68;3.42;;;;;;;;;;5095330;28;20644;-79
2022/01/06 14:12:03;;;;;;;3.78;2.58;;;;;;;;;;5092207;28;20191;-79
2022/01/06 14:14:29;;;;;;;3.75;2.45;;;;;;;;;;5107014;28;20210;-78
2022/01/06 14:16:56;;;;;;;4.85;2.65;;;;;;;;;;5103744;28;20187;-78
2022/01/06 14:19:22;;;;;;;5.75;2.10;;;;;;;;;;5104188;28;20242;-78
2022/01/06 14:21:48;;;;;;;6.25;2.05;;;;;;;;;;5114292;27;20182;-79
2022/01/06 14:24:14;;;;;;;5.68;2.50;;;;;;;;;;5120976;28;20253;-79
2022/01/06 14:26:40;;;;;;;3.50;2.00;;;;;;;;;;5096400;28;20279;-78
2022/01/06 14:29:06;;;;;;;8.30;1.80;;;;;;;;;;5108777;27;20267;-78
2022/01/06 14:31:32;;;;;;;3.63;1.70;;;;;;;;;;5124304;27;20260;-78
2022/01/06 14:33:58;;;;;;;3.30;1.65;;;;;;;;;;5094192;28;20932;-78
2022/01/06 14:36:24;;;;;;;6.45;1.85;;;;;;;;;;5111776;28;20247;-76
2022/01/06 14:38:50;;;;;;;2.83;1.75;;;;;;;;;;5096458;28;20196;-78
2022/01/06 14:41:18;;;;;;;4.65;3.67;;;;;;;;;;5099959;28;20284;-78
2022/01/06 14:43:44;;;;;;;6.10;2.85;;;;;;;;;;5106768;28;20198;-77
2022/01/06 14:46:13;;;;;;;7.13;2.00;;;;;;;;;;5133102;27;20166;-77
2022/01/06 14:48:39;;;;;;;3.88;2.28;;;;;;;;;;5125920;27;20365;-78